sensor_id;sensor_type;location;lat;lon;timestamp;temperature;humidity
6654;DHT22;3363;50.942;7.034;2022-09-09T00:00:51;19.70;99.90
6654;DHT22;3363;50.942;7.034;2022-09-09T00:03:22;19.90;99.90
6654;DHT22;3363;50.942;7.034;2022-09-09T00:05:51;19.90;99.90
6654;DHT22;3363;50.942;7.034;2022-09-09T00:08:22;19.90;99.90
6654;DHT22;3363;50.942;7.034;2022-09-09T00:10:51;19.90;99.90
6654;DHT22;3363;50.942;7.034;2022-09-09T00:13:20;19.90;99.90
6654;DHT22;3363;50.942;7.034;2022-09-09T00:15:52;19.90;99.90
6654;DHT22;3363;50.942;7.034;2022-09-09T00:18:23;19.90;99.90
6654;DHT22;3363;50.942;7.034;2022-09-09T00:20:53;19.70;99.90
6654;DHT22;3363;50.942;7.034;2022-09-09T00:23:25;19.80;99.90
6654;DHT22;3363;50.942;7.034;2022-09-09T00:25:57;19.80;99.90
6654;DHT22;3363;50.942;7.034;2022-09-09T00:28:26;19.90;99.90
6654;DHT22;3363;50.942;7.034;2022-09-09T00:30:56;19.70;99.90
6654;DHT22;3363;50.942;7.034;2022-09-09T00:33:24;19.60;99.90
6654;DHT22;3363;50.942;7.034;2022-09-09T00:35:52;19.70;99.90
6654;DHT22;3363;50.942;7.034;2022-09-09T00:38:23;19.60;99.90
6654;DHT22;3363;50.942;7.034;2022-09-09T00:40:53;19.60;99.90
6654;DHT22;3363;50.942;7.034;2022-09-09T00:43:26;19.40;99.90
6654;DHT22;3363;50.942;7.034;2022-09-09T00:46:14;19.40;99.90
6654;DHT22;3363;50.942;7.034;2022-09-09T00:48:47;19.50;99.90
6654;DHT22;3363;50.942;7.034;2022-09-09T00:51:19;19.70;99.90
6654;DHT22;3363;50.942;7.034;2022-09-09T00:53:56;19.60;99.90
6654;DHT22;3363;50.942;7.034;2022-09-09T00:56:26;19.50;99.00
6654;DHT22;3363;50.942;7.034;2022-09-09T00:58:57;19.60;99.90
6654;DHT22;3363;50.942;7.034;2022-09-09T01:01:26;19.70;99.30
6654;DHT22;3363;50.942;7.034;2022-09-09T01:03:53;19.60;98.70
6654;DHT22;3363;50.942;7.034;2022-09-09T01:06:21;19.60;99.20
6654;DHT22;3363;50.942;7.034;2022-09-09T01:09:04;19.70;98.70
6654;DHT22;3363;50.942;7.034;2022-09-09T01:11:36;19.80;98.10
6654;DHT22;3363;50.942;7.034;2022-09-09T01:14:09;19.80;97.60
6654;DHT22;3363;50.942;7.034;2022-09-09T01:16:38;19.60;98.50
6654;DHT22;3363;50.942;7.034;2022-09-09T01:19:05;19.70;98.30
6654;DHT22;3363;50.942;7.034;2022-09-09T01:21:37;19.70;98.30
6654;DHT22;3363;50.942;7.034;2022-09-09T01:24:20;19.70;98.30
6654;DHT22;3363;50.942;7.034;2022-09-09T01:26:50;19.70;98.50
6654;DHT22;3363;50.942;7.034;2022-09-09T01:29:18;19.60;98.70
6654;DHT22;3363;50.942;7.034;2022-09-09T01:31:52;19.70;98.40
6654;DHT22;3363;50.942;7.034;2022-09-09T01:34:19;19.60;98.30
6654;DHT22;3363;50.942;7.034;2022-09-09T01:36:47;19.50;99.40
6654;DHT22;3363;50.942;7.034;2022-09-09T01:39:16;19.50;99.60
6654;DHT22;3363;50.942;7.034;2022-09-09T01:41:43;19.60;98.50
6654;DHT22;3363;50.942;7.034;2022-09-09T01:44:11;19.60;98.60
6654;DHT22;3363;50.942;7.034;2022-09-09T01:46:38;19.60;98.40
6654;DHT22;3363;50.942;7.034;2022-09-09T01:49:05;19.50;98.70
6654;DHT22;3363;50.942;7.034;2022-09-09T01:51:33;19.60;98.80
6654;DHT22;3363;50.942;7.034;2022-09-09T01:54:00;19.60;98.70
6654;DHT22;3363;50.942;7.034;2022-09-09T01:56:31;19.50;98.70
6654;DHT22;3363;50.942;7.034;2022-09-09T01:59:03;19.50;98.80
6654;DHT22;3363;50.942;7.034;2022-09-09T02:01:42;19.50;98.80
6654;DHT22;3363;50.942;7.034;2022-09-09T02:04:16;19.40;99.60
6654;DHT22;3363;50.942;7.034;2022-09-09T02:06:44;19.30;99.90
6654;DHT22;3363;50.942;7.034;2022-09-09T02:09:12;19.30;99.90
6654;DHT22;3363;50.942;7.034;2022-09-09T02:11:39;19.40;99.80
6654;DHT22;3363;50.942;7.034;2022-09-09T02:14:08;19.40;99.40
6654;DHT22;3363;50.942;7.034;2022-09-09T02:16:37;19.50;99.00
6654;DHT22;3363;50.942;7.034;2022-09-09T02:19:08;19.50;99.20
6654;DHT22;3363;50.942;7.034;2022-09-09T02:21:38;19.50;98.50
6654;DHT22;3363;50.942;7.034;2022-09-09T02:24:06;19.50;98.10
6654;DHT22;3363;50.942;7.034;2022-09-09T02:26:35;19.40;98.30
6654;DHT22;3363;50.942;7.034;2022-09-09T02:29:04;19.40;99.20
6654;DHT22;3363;50.942;7.034;2022-09-09T02:31:31;19.40;99.10
6654;DHT22;3363;50.942;7.034;2022-09-09T02:34:00;19.40;99.00
6654;DHT22;3363;50.942;7.034;2022-09-09T02:36:29;19.50;98.70
6654;DHT22;3363;50.942;7.034;2022-09-09T02:38:56;19.30;98.70
6654;DHT22;3363;50.942;7.034;2022-09-09T02:41:24;19.40;98.90
6654;DHT22;3363;50.942;7.034;2022-09-09T02:43:52;19.40;98.80
6654;DHT22;3363;50.942;7.034;2022-09-09T02:46:23;19.50;98.50
6654;DHT22;3363;50.942;7.034;2022-09-09T02:48:55;19.40;98.60
6654;DHT22;3363;50.942;7.034;2022-09-09T02:51:27;19.30;98.80
6654;DHT22;3363;50.942;7.034;2022-09-09T02:53:59;19.20;99.90
6654;DHT22;3363;50.942;7.034;2022-09-09T02:56:29;19.20;99.90
6654;DHT22;3363;50.942;7.034;2022-09-09T02:58:58;19.30;99.90
6654;DHT22;3363;50.942;7.034;2022-09-09T03:01:24;19.30;99.90
6654;DHT22;3363;50.942;7.034;2022-09-09T03:03:51;19.30;99.90
6654;DHT22;3363;50.942;7.034;2022-09-09T03:06:18;19.30;99.90
6654;DHT22;3363;50.942;7.034;2022-09-09T03:08:44;19.30;99.90
6654;DHT22;3363;50.942;7.034;2022-09-09T03:11:12;19.40;99.20
6654;DHT22;3363;50.942;7.034;2022-09-09T03:13:39;19.40;99.00
6654;DHT22;3363;50.942;7.034;2022-09-09T03:16:06;19.30;99.60
6654;DHT22;3363;50.942;7.034;2022-09-09T03:18:33;19.20;99.90
6654;DHT22;3363;50.942;7.034;2022-09-09T03:20:59;19.20;99.90
6654;DHT22;3363;50.942;7.034;2022-09-09T03:23:26;19.30;99.90
6654;DHT22;3363;50.942;7.034;2022-09-09T03:25:53;19.30;99.90
6654;DHT22;3363;50.942;7.034;2022-09-09T03:28:23;19.30;99.80
6654;DHT22;3363;50.942;7.034;2022-09-09T03:30:57;19.30;99.90
6654;DHT22;3363;50.942;7.034;2022-09-09T03:33:24;19.30;99.90
6654;DHT22;3363;50.942;7.034;2022-09-09T03:35:51;19.30;99.60
6654;DHT22;3363;50.942;7.034;2022-09-09T03:38:18;19.30;99.70
6654;DHT22;3363;50.942;7.034;2022-09-09T03:40:48;19.30;99.40
6654;DHT22;3363;50.942;7.034;2022-09-09T03:43:15;19.40;99.00
6654;DHT22;3363;50.942;7.034;2022-09-09T03:45:46;19.30;98.70
6654;DHT22;3363;50.942;7.034;2022-09-09T03:48:13;19.30;99.10
6654;DHT22;3363;50.942;7.034;2022-09-09T03:50:43;19.20;99.50
6654;DHT22;3363;50.942;7.034;2022-09-09T03:53:10;19.10;99.90
6654;DHT22;3363;50.942;7.034;2022-09-09T03:55:37;19.10;99.30
6654;DHT22;3363;50.942;7.034;2022-09-09T03:58:03;19.10;99.90
6654;DHT22;3363;50.942;7.034;2022-09-09T04:00:30;19.10;99.90
6654;DHT22;3363;50.942;7.034;2022-09-09T04:02:58;19.00;99.90
6654;DHT22;3363;50.942;7.034;2022-09-09T04:05:25;19.20;99.60
6654;DHT22;3363;50.942;7.034;2022-09-09T04:07:52;19.20;99.20
6654;DHT22;3363;50.942;7.034;2022-09-09T04:10:19;19.10;99.60
6654;DHT22;3363;50.942;7.034;2022-09-09T04:12:46;19.10;99.40
6654;DHT22;3363;50.942;7.034;2022-09-09T04:15:13;19.20;99.10
6654;DHT22;3363;50.942;7.034;2022-09-09T04:17:39;19.20;98.80
6654;DHT22;3363;50.942;7.034;2022-09-09T04:20:07;19.20;98.60
6654;DHT22;3363;50.942;7.034;2022-09-09T04:22:36;19.20;98.50
6654;DHT22;3363;50.942;7.034;2022-09-09T04:25:04;19.20;99.00
6654;DHT22;3363;50.942;7.034;2022-09-09T04:27:31;19.10;98.90
6654;DHT22;3363;50.942;7.034;2022-09-09T04:29:57;19.20;98.50
6654;DHT22;3363;50.942;7.034;2022-09-09T04:32:24;19.20;99.10
6654;DHT22;3363;50.942;7.034;2022-09-09T04:34:51;19.20;98.70
6654;DHT22;3363;50.942;7.034;2022-09-09T04:37:19;19.20;98.50
6654;DHT22;3363;50.942;7.034;2022-09-09T04:39:46;19.20;98.90
6654;DHT22;3363;50.942;7.034;2022-09-09T04:42:13;19.20;99.70
6654;DHT22;3363;50.942;7.034;2022-09-09T04:44:39;19.00;99.80
6654;DHT22;3363;50.942;7.034;2022-09-09T04:47:06;19.00;99.90
6654;DHT22;3363;50.942;7.034;2022-09-09T04:49:33;19.00;99.90
6654;DHT22;3363;50.942;7.034;2022-09-09T04:52:00;19.00;99.90
6654;DHT22;3363;50.942;7.034;2022-09-09T04:54:28;19.10;99.50
6654;DHT22;3363;50.942;7.034;2022-09-09T04:56:55;19.20;99.00
6654;DHT22;3363;50.942;7.034;2022-09-09T04:59:21;19.10;99.90
6654;DHT22;3363;50.942;7.034;2022-09-09T05:01:48;19.10;99.60
6654;DHT22;3363;50.942;7.034;2022-09-09T05:04:15;19.00;99.90
6654;DHT22;3363;50.942;7.034;2022-09-09T05:06:42;19.00;99.80
6654;DHT22;3363;50.942;7.034;2022-09-09T05:09:09;19.00;99.80
6654;DHT22;3363;50.942;7.034;2022-09-09T05:11:37;18.80;99.90
6654;DHT22;3363;50.942;7.034;2022-09-09T05:14:03;18.80;99.90
6654;DHT22;3363;50.942;7.034;2022-09-09T05:16:30;19.00;99.90
6654;DHT22;3363;50.942;7.034;2022-09-09T05:18:57;19.00;99.90
6654;DHT22;3363;50.942;7.034;2022-09-09T05:21:24;18.90;99.90
6654;DHT22;3363;50.942;7.034;2022-09-09T05:23:51;18.80;99.90
6654;DHT22;3363;50.942;7.034;2022-09-09T05:26:21;18.80;99.90
6654;DHT22;3363;50.942;7.034;2022-09-09T05:28:49;18.70;99.90
6654;DHT22;3363;50.942;7.034;2022-09-09T05:31:16;18.40;99.90
6654;DHT22;3363;50.942;7.034;2022-09-09T05:33:44;17.00;99.90
6654;DHT22;3363;50.942;7.034;2022-09-09T05:36:11;16.80;99.90
6654;DHT22;3363;50.942;7.034;2022-09-09T05:38:39;16.90;99.90
6654;DHT22;3363;50.942;7.034;2022-09-09T05:41:06;17.10;99.90
6654;DHT22;3363;50.942;7.034;2022-09-09T05:43:33;17.30;99.90
6654;DHT22;3363;50.942;7.034;2022-09-09T05:46:02;17.30;99.90
6654;DHT22;3363;50.942;7.034;2022-09-09T05:48:30;17.00;99.90
6654;DHT22;3363;50.942;7.034;2022-09-09T05:50:57;17.10;99.90
6654;DHT22;3363;50.942;7.034;2022-09-09T05:53:24;17.10;99.90
6654;DHT22;3363;50.942;7.034;2022-09-09T05:55:57;17.00;99.90
6654;DHT22;3363;50.942;7.034;2022-09-09T05:58:24;17.10;99.90
6654;DHT22;3363;50.942;7.034;2022-09-09T06:00:50;17.20;99.90
6654;DHT22;3363;50.942;7.034;2022-09-09T06:03:18;17.20;99.90
6654;DHT22;3363;50.942;7.034;2022-09-09T06:05:56;17.10;99.90
6654;DHT22;3363;50.942;7.034;2022-09-09T06:08:23;17.20;99.90
6654;DHT22;3363;50.942;7.034;2022-09-09T06:10:50;17.10;99.90
6654;DHT22;3363;50.942;7.034;2022-09-09T06:13:17;17.30;99.90
6654;DHT22;3363;50.942;7.034;2022-09-09T06:15:48;17.20;99.90
6654;DHT22;3363;50.942;7.034;2022-09-09T06:18:15;17.20;99.90
6654;DHT22;3363;50.942;7.034;2022-09-09T06:20:53;17.00;99.90
6654;DHT22;3363;50.942;7.034;2022-09-09T06:23:20;16.90;99.90
6654;DHT22;3363;50.942;7.034;2022-09-09T06:25:47;17.10;99.90
6654;DHT22;3363;50.942;7.034;2022-09-09T06:28:14;16.90;99.90
6654;DHT22;3363;50.942;7.034;2022-09-09T06:30:41;16.80;99.90
6654;DHT22;3363;50.942;7.034;2022-09-09T06:33:07;16.80;99.90
6654;DHT22;3363;50.942;7.034;2022-09-09T06:35:34;16.90;99.90
6654;DHT22;3363;50.942;7.034;2022-09-09T06:38:02;16.90;99.90
6654;DHT22;3363;50.942;7.034;2022-09-09T06:40:29;16.80;99.90
6654;DHT22;3363;50.942;7.034;2022-09-09T06:42:58;16.50;99.90
6654;DHT22;3363;50.942;7.034;2022-09-09T06:45:25;16.70;99.90
6654;DHT22;3363;50.942;7.034;2022-09-09T06:47:54;16.70;99.90
6654;DHT22;3363;50.942;7.034;2022-09-09T06:50:20;17.10;99.90
6654;DHT22;3363;50.942;7.034;2022-09-09T06:52:47;16.90;99.90
6654;DHT22;3363;50.942;7.034;2022-09-09T06:55:15;16.70;99.90
6654;DHT22;3363;50.942;7.034;2022-09-09T06:57:43;17.00;99.90
6654;DHT22;3363;50.942;7.034;2022-09-09T07:00:10;17.00;99.90
6654;DHT22;3363;50.942;7.034;2022-09-09T07:02:39;17.30;99.90
6654;DHT22;3363;50.942;7.034;2022-09-09T07:05:06;17.50;99.90
6654;DHT22;3363;50.942;7.034;2022-09-09T07:07:33;17.40;99.90
6654;DHT22;3363;50.942;7.034;2022-09-09T07:10:00;17.40;99.90
6654;DHT22;3363;50.942;7.034;2022-09-09T07:12:28;17.60;99.90
6654;DHT22;3363;50.942;7.034;2022-09-09T07:14:54;17.50;99.90
6654;DHT22;3363;50.942;7.034;2022-09-09T07:17:21;17.70;99.90
6654;DHT22;3363;50.942;7.034;2022-09-09T07:19:48;17.80;99.90
6654;DHT22;3363;50.942;7.034;2022-09-09T07:22:15;17.80;99.90
6654;DHT22;3363;50.942;7.034;2022-09-09T07:24:41;17.10;99.90
6654;DHT22;3363;50.942;7.034;2022-09-09T07:27:10;17.10;99.90
6654;DHT22;3363;50.942;7.034;2022-09-09T07:29:38;17.40;99.90
6654;DHT22;3363;50.942;7.034;2022-09-09T07:32:04;17.60;99.90
6654;DHT22;3363;50.942;7.034;2022-09-09T07:34:31;17.70;99.90
6654;DHT22;3363;50.942;7.034;2022-09-09T07:36:58;17.70;99.90
6654;DHT22;3363;50.942;7.034;2022-09-09T07:39:25;17.20;99.90
6654;DHT22;3363;50.942;7.034;2022-09-09T07:41:52;17.50;99.90
6654;DHT22;3363;50.942;7.034;2022-09-09T07:44:20;17.80;99.90
6654;DHT22;3363;50.942;7.034;2022-09-09T07:46:49;17.70;99.90
6654;DHT22;3363;50.942;7.034;2022-09-09T07:49:15;17.60;99.90
6654;DHT22;3363;50.942;7.034;2022-09-09T07:51:43;17.70;99.90
6654;DHT22;3363;50.942;7.034;2022-09-09T07:54:11;18.00;99.90
6654;DHT22;3363;50.942;7.034;2022-09-09T07:56:38;17.80;99.90
6654;DHT22;3363;50.942;7.034;2022-09-09T07:59:05;17.90;99.90
6654;DHT22;3363;50.942;7.034;2022-09-09T08:01:33;17.90;99.90
6654;DHT22;3363;50.942;7.034;2022-09-09T08:04:06;17.90;99.90
6654;DHT22;3363;50.942;7.034;2022-09-09T08:06:35;18.00;99.90
6654;DHT22;3363;50.942;7.034;2022-09-09T08:09:02;17.80;99.90
6654;DHT22;3363;50.942;7.034;2022-09-09T08:11:29;17.80;99.90
6654;DHT22;3363;50.942;7.034;2022-09-09T08:13:56;17.70;99.90
6654;DHT22;3363;50.942;7.034;2022-09-09T08:16:23;17.80;99.90
6654;DHT22;3363;50.942;7.034;2022-09-09T08:18:50;18.00;99.90
6654;DHT22;3363;50.942;7.034;2022-09-09T08:21:19;17.90;99.90
6654;DHT22;3363;50.942;7.034;2022-09-09T08:23:46;18.00;99.90
6654;DHT22;3363;50.942;7.034;2022-09-09T08:26:14;18.10;99.90
6654;DHT22;3363;50.942;7.034;2022-09-09T08:28:41;18.00;99.90
6654;DHT22;3363;50.942;7.034;2022-09-09T08:31:09;18.10;99.90
6654;DHT22;3363;50.942;7.034;2022-09-09T08:33:36;18.10;97.90
6654;DHT22;3363;50.942;7.034;2022-09-09T08:36:04;18.00;99.90
6654;DHT22;3363;50.942;7.034;2022-09-09T08:38:32;18.20;99.90
6654;DHT22;3363;50.942;7.034;2022-09-09T08:41:02;18.40;93.20
6654;DHT22;3363;50.942;7.034;2022-09-09T08:43:31;18.50;88.90
6654;DHT22;3363;50.942;7.034;2022-09-09T08:46:00;18.50;98.60
6654;DHT22;3363;50.942;7.034;2022-09-09T08:48:36;18.30;99.00
6654;DHT22;3363;50.942;7.034;2022-09-09T08:51:07;18.50;90.30
6654;DHT22;3363;50.942;7.034;2022-09-09T08:53:36;18.60;79.80
6654;DHT22;3363;50.942;7.034;2022-09-09T08:56:08;18.70;78.20
6654;DHT22;3363;50.942;7.034;2022-09-09T08:58:39;18.50;90.60
6654;DHT22;3363;50.942;7.034;2022-09-09T09:01:14;18.60;75.90
6654;DHT22;3363;50.942;7.034;2022-09-09T09:03:47;18.60;73.00
6654;DHT22;3363;50.942;7.034;2022-09-09T09:06:20;18.50;76.40
6654;DHT22;3363;50.942;7.034;2022-09-09T09:08:51;18.50;78.20
6654;DHT22;3363;50.942;7.034;2022-09-09T09:11:20;18.50;86.30
6654;DHT22;3363;50.942;7.034;2022-09-09T09:13:48;18.60;80.10
6654;DHT22;3363;50.942;7.034;2022-09-09T09:16:21;18.80;72.60
6654;DHT22;3363;50.942;7.034;2022-09-09T09:18:50;19.00;75.50
6654;DHT22;3363;50.942;7.034;2022-09-09T09:21:19;19.20;68.10
6654;DHT22;3363;50.942;7.034;2022-09-09T09:23:51;19.20;74.10
6654;DHT22;3363;50.942;7.034;2022-09-09T09:26:20;19.20;68.70
6654;DHT22;3363;50.942;7.034;2022-09-09T09:28:48;19.30;65.70
6654;DHT22;3363;50.942;7.034;2022-09-09T09:31:15;19.20;66.70
6654;DHT22;3363;50.942;7.034;2022-09-09T09:33:45;19.10;68.50
6654;DHT22;3363;50.942;7.034;2022-09-09T09:36:13;19.00;68.30
6654;DHT22;3363;50.942;7.034;2022-09-09T09:38:52;18.90;72.70
6654;DHT22;3363;50.942;7.034;2022-09-09T09:41:34;19.00;67.70
6654;DHT22;3363;50.942;7.034;2022-09-09T09:44:01;18.90;72.80
6654;DHT22;3363;50.942;7.034;2022-09-09T09:46:28;18.90;66.90
6654;DHT22;3363;50.942;7.034;2022-09-09T09:48:59;18.90;70.80
6654;DHT22;3363;50.942;7.034;2022-09-09T09:51:26;19.00;69.20
6654;DHT22;3363;50.942;7.034;2022-09-09T09:53:54;19.00;67.50
6654;DHT22;3363;50.942;7.034;2022-09-09T09:56:31;19.00;68.60
6654;DHT22;3363;50.942;7.034;2022-09-09T09:58:57;19.10;69.70
6654;DHT22;3363;50.942;7.034;2022-09-09T10:01:25;19.10;69.10
6654;DHT22;3363;50.942;7.034;2022-09-09T10:03:53;19.10;70.50
6654;DHT22;3363;50.942;7.034;2022-09-09T10:06:28;19.20;71.10
6654;DHT22;3363;50.942;7.034;2022-09-09T10:08:56;19.30;65.50
6654;DHT22;3363;50.942;7.034;2022-09-09T10:11:26;19.40;68.40
6654;DHT22;3363;50.942;7.034;2022-09-09T10:13:56;19.40;67.00
6654;DHT22;3363;50.942;7.034;2022-09-09T10:16:38;19.40;69.40
6654;DHT22;3363;50.942;7.034;2022-09-09T10:19:08;19.30;65.70
6654;DHT22;3363;50.942;7.034;2022-09-09T10:21:56;19.30;66.10
6654;DHT22;3363;50.942;7.034;2022-09-09T10:24:30;19.20;71.30
6654;DHT22;3363;50.942;7.034;2022-09-09T10:27:00;19.30;67.80
6654;DHT22;3363;50.942;7.034;2022-09-09T10:29:33;19.20;69.00
6654;DHT22;3363;50.942;7.034;2022-09-09T10:32:06;19.20;64.40
6654;DHT22;3363;50.942;7.034;2022-09-09T10:34:42;19.20;63.50
6654;DHT22;3363;50.942;7.034;2022-09-09T10:37:14;19.20;65.80
6654;DHT22;3363;50.942;7.034;2022-09-09T10:39:49;19.20;63.20
6654;DHT22;3363;50.942;7.034;2022-09-09T10:42:17;19.40;65.40
6654;DHT22;3363;50.942;7.034;2022-09-09T10:44:49;19.50;63.90
6654;DHT22;3363;50.942;7.034;2022-09-09T10:47:24;19.50;64.10
6654;DHT22;3363;50.942;7.034;2022-09-09T10:50:07;19.50;64.20
6654;DHT22;3363;50.942;7.034;2022-09-09T10:52:39;19.50;61.80
6654;DHT22;3363;50.942;7.034;2022-09-09T10:55:11;19.50;61.10
6654;DHT22;3363;50.942;7.034;2022-09-09T10:57:40;19.60;61.40
6654;DHT22;3363;50.942;7.034;2022-09-09T11:00:13;19.70;61.20
6654;DHT22;3363;50.942;7.034;2022-09-09T11:02:41;19.80;61.50
6654;DHT22;3363;50.942;7.034;2022-09-09T11:05:09;19.90;61.50
6654;DHT22;3363;50.942;7.034;2022-09-09T11:07:40;19.90;61.20
6654;DHT22;3363;50.942;7.034;2022-09-09T11:10:15;19.90;60.30
6654;DHT22;3363;50.942;7.034;2022-09-09T11:12:43;19.90;61.00
6654;DHT22;3363;50.942;7.034;2022-09-09T11:15:14;20.20;60.20
6654;DHT22;3363;50.942;7.034;2022-09-09T11:17:44;20.30;61.80
6654;DHT22;3363;50.942;7.034;2022-09-09T11:20:12;20.20;59.50
6654;DHT22;3363;50.942;7.034;2022-09-09T11:22:42;20.20;59.50
6654;DHT22;3363;50.942;7.034;2022-09-09T11:25:10;20.10;60.60
6654;DHT22;3363;50.942;7.034;2022-09-09T11:27:43;20.10;59.80
6654;DHT22;3363;50.942;7.034;2022-09-09T11:30:19;20.10;60.30
6654;DHT22;3363;50.942;7.034;2022-09-09T11:33:01;20.00;60.30
6654;DHT22;3363;50.942;7.034;2022-09-09T11:35:31;20.00;60.20
6654;DHT22;3363;50.942;7.034;2022-09-09T11:38:07;20.00;59.80
6654;DHT22;3363;50.942;7.034;2022-09-09T11:40:36;19.90;59.50
6654;DHT22;3363;50.942;7.034;2022-09-09T11:43:05;19.90;60.30
6654;DHT22;3363;50.942;7.034;2022-09-09T11:45:37;19.90;60.90
6654;DHT22;3363;50.942;7.034;2022-09-09T11:48:05;19.90;59.00
6654;DHT22;3363;50.942;7.034;2022-09-09T11:50:56;20.00;59.20
6654;DHT22;3363;50.942;7.034;2022-09-09T11:53:24;20.00;60.50
6654;DHT22;3363;50.942;7.034;2022-09-09T11:56:05;20.10;60.00
6654;DHT22;3363;50.942;7.034;2022-09-09T11:58:36;20.10;57.20
6654;DHT22;3363;50.942;7.034;2022-09-09T12:01:12;20.20;59.40
6654;DHT22;3363;50.942;7.034;2022-09-09T12:03:40;20.10;59.00
6654;DHT22;3363;50.942;7.034;2022-09-09T12:06:09;20.10;56.90
6654;DHT22;3363;50.942;7.034;2022-09-09T12:08:37;20.10;58.00
6654;DHT22;3363;50.942;7.034;2022-09-09T12:11:07;20.00;58.10
6654;DHT22;3363;50.942;7.034;2022-09-09T12:13:35;20.00;60.00
6654;DHT22;3363;50.942;7.034;2022-09-09T12:16:02;20.00;59.00
6654;DHT22;3363;50.942;7.034;2022-09-09T12:18:32;20.00;59.70
6654;DHT22;3363;50.942;7.034;2022-09-09T12:21:02;20.00;62.40
6654;DHT22;3363;50.942;7.034;2022-09-09T12:23:37;20.00;59.50
6654;DHT22;3363;50.942;7.034;2022-09-09T12:26:16;20.00;57.70
6654;DHT22;3363;50.942;7.034;2022-09-09T12:28:51;20.10;57.80
6654;DHT22;3363;50.942;7.034;2022-09-09T12:31:21;20.20;56.50
6654;DHT22;3363;50.942;7.034;2022-09-09T12:33:49;20.20;57.90
6654;DHT22;3363;50.942;7.034;2022-09-09T12:36:18;20.20;55.80
6654;DHT22;3363;50.942;7.034;2022-09-09T12:38:45;20.30;55.60
6654;DHT22;3363;50.942;7.034;2022-09-09T12:41:18;20.30;56.70
6654;DHT22;3363;50.942;7.034;2022-09-09T12:43:45;20.30;56.70
6654;DHT22;3363;50.942;7.034;2022-09-09T12:46:15;20.20;56.40
6654;DHT22;3363;50.942;7.034;2022-09-09T12:48:45;20.20;56.60
6654;DHT22;3363;50.942;7.034;2022-09-09T12:51:16;20.20;56.50
6654;DHT22;3363;50.942;7.034;2022-09-09T12:53:44;20.20;54.40
6654;DHT22;3363;50.942;7.034;2022-09-09T12:56:17;20.10;56.30
6654;DHT22;3363;50.942;7.034;2022-09-09T12:58:45;20.10;57.10
6654;DHT22;3363;50.942;7.034;2022-09-09T13:01:20;20.20;56.10
6654;DHT22;3363;50.942;7.034;2022-09-09T13:03:47;20.20;57.90
6654;DHT22;3363;50.942;7.034;2022-09-09T13:06:18;20.50;55.70
6654;DHT22;3363;50.942;7.034;2022-09-09T13:08:45;20.70;55.80
6654;DHT22;3363;50.942;7.034;2022-09-09T13:11:12;20.90;54.40
6654;DHT22;3363;50.942;7.034;2022-09-09T13:13:41;21.10;53.60
6654;DHT22;3363;50.942;7.034;2022-09-09T13:16:19;21.20;52.10
6654;DHT22;3363;50.942;7.034;2022-09-09T13:18:46;21.10;53.20
6654;DHT22;3363;50.942;7.034;2022-09-09T13:21:13;20.90;55.80
6654;DHT22;3363;50.942;7.034;2022-09-09T13:23:40;20.90;53.80
6654;DHT22;3363;50.942;7.034;2022-09-09T13:26:19;20.90;55.30
6654;DHT22;3363;50.942;7.034;2022-09-09T13:28:48;21.20;54.80
6654;DHT22;3363;50.942;7.034;2022-09-09T13:31:20;21.30;52.60
6654;DHT22;3363;50.942;7.034;2022-09-09T13:33:48;21.30;53.40
6654;DHT22;3363;50.942;7.034;2022-09-09T13:36:14;21.50;53.60
6654;DHT22;3363;50.942;7.034;2022-09-09T13:38:52;21.40;53.10
6654;DHT22;3363;50.942;7.034;2022-09-09T13:41:19;21.40;53.10
6654;DHT22;3363;50.942;7.034;2022-09-09T13:43:49;21.30;54.30
6654;DHT22;3363;50.942;7.034;2022-09-09T13:46:25;21.20;53.50
6654;DHT22;3363;50.942;7.034;2022-09-09T13:48:54;21.10;54.50
6654;DHT22;3363;50.942;7.034;2022-09-09T13:51:22;21.20;54.10
6654;DHT22;3363;50.942;7.034;2022-09-09T13:53:52;21.40;53.90
6654;DHT22;3363;50.942;7.034;2022-09-09T13:56:19;21.30;54.10
6654;DHT22;3363;50.942;7.034;2022-09-09T13:58:46;21.20;53.80
6654;DHT22;3363;50.942;7.034;2022-09-09T14:01:13;21.30;54.10
6654;DHT22;3363;50.942;7.034;2022-09-09T14:03:41;21.40;54.30
6654;DHT22;3363;50.942;7.034;2022-09-09T14:06:07;21.30;54.50
6654;DHT22;3363;50.942;7.034;2022-09-09T14:08:34;21.30;54.70
6654;DHT22;3363;50.942;7.034;2022-09-09T14:11:02;21.10;54.70
6654;DHT22;3363;50.942;7.034;2022-09-09T14:13:29;21.00;55.60
6654;DHT22;3363;50.942;7.034;2022-09-09T14:15:55;20.90;55.80
6654;DHT22;3363;50.942;7.034;2022-09-09T14:18:22;20.90;55.80
6654;DHT22;3363;50.942;7.034;2022-09-09T14:20:52;20.90;56.00
6654;DHT22;3363;50.942;7.034;2022-09-09T14:23:19;20.90;57.10
6654;DHT22;3363;50.942;7.034;2022-09-09T14:25:47;20.90;56.60
6654;DHT22;3363;50.942;7.034;2022-09-09T14:28:14;20.80;56.20
6654;DHT22;3363;50.942;7.034;2022-09-09T14:30:41;20.70;57.20
6654;DHT22;3363;50.942;7.034;2022-09-09T14:33:10;20.70;57.20
6654;DHT22;3363;50.942;7.034;2022-09-09T14:35:37;20.70;57.70
6654;DHT22;3363;50.942;7.034;2022-09-09T14:38:05;20.60;58.30
6654;DHT22;3363;50.942;7.034;2022-09-09T14:40:33;20.50;57.90
6654;DHT22;3363;50.942;7.034;2022-09-09T14:43:00;20.50;59.40
6654;DHT22;3363;50.942;7.034;2022-09-09T14:45:27;20.50;60.60
6654;DHT22;3363;50.942;7.034;2022-09-09T14:47:54;20.50;60.50
6654;DHT22;3363;50.942;7.034;2022-09-09T14:50:21;20.50;60.20
6654;DHT22;3363;50.942;7.034;2022-09-09T14:52:48;20.40;63.70
6654;DHT22;3363;50.942;7.034;2022-09-09T14:55:17;19.70;79.00
6654;DHT22;3363;50.942;7.034;2022-09-09T14:57:44;19.20;99.90
6654;DHT22;3363;50.942;7.034;2022-09-09T15:00:11;19.20;99.90
6654;DHT22;3363;50.942;7.034;2022-09-09T15:02:38;19.50;99.90
6654;DHT22;3363;50.942;7.034;2022-09-09T15:05:05;19.60;99.90
6654;DHT22;3363;50.942;7.034;2022-09-09T15:07:32;19.80;99.90
6654;DHT22;3363;50.942;7.034;2022-09-09T15:09:59;19.90;99.90
6654;DHT22;3363;50.942;7.034;2022-09-09T15:12:27;19.90;99.90
6654;DHT22;3363;50.942;7.034;2022-09-09T15:14:55;19.90;99.90
6654;DHT22;3363;50.942;7.034;2022-09-09T15:17:22;19.90;99.90
6654;DHT22;3363;50.942;7.034;2022-09-09T15:19:52;20.00;99.90
6654;DHT22;3363;50.942;7.034;2022-09-09T15:22:20;19.80;99.90
6654;DHT22;3363;50.942;7.034;2022-09-09T15:24:47;19.80;99.90
6654;DHT22;3363;50.942;7.034;2022-09-09T15:27:13;19.90;99.90
6654;DHT22;3363;50.942;7.034;2022-09-09T15:29:42;20.00;99.90
6654;DHT22;3363;50.942;7.034;2022-09-09T15:32:09;20.00;99.90
6654;DHT22;3363;50.942;7.034;2022-09-09T15:34:36;19.90;99.90
6654;DHT22;3363;50.942;7.034;2022-09-09T15:37:02;19.90;99.90
6654;DHT22;3363;50.942;7.034;2022-09-09T15:39:29;19.90;99.90
6654;DHT22;3363;50.942;7.034;2022-09-09T15:41:56;20.00;99.90
6654;DHT22;3363;50.942;7.034;2022-09-09T15:44:23;19.80;99.90
6654;DHT22;3363;50.942;7.034;2022-09-09T15:46:52;19.90;99.90
6654;DHT22;3363;50.942;7.034;2022-09-09T15:49:20;19.90;99.90
6654;DHT22;3363;50.942;7.034;2022-09-09T15:51:51;19.80;99.90
6654;DHT22;3363;50.942;7.034;2022-09-09T15:54:19;19.70;99.90
6654;DHT22;3363;50.942;7.034;2022-09-09T15:56:49;19.60;99.90
6654;DHT22;3363;50.942;7.034;2022-09-09T15:59:16;19.70;99.90
6654;DHT22;3363;50.942;7.034;2022-09-09T16:01:43;19.20;99.90
6654;DHT22;3363;50.942;7.034;2022-09-09T16:04:11;19.20;99.90
6654;DHT22;3363;50.942;7.034;2022-09-09T16:06:38;19.20;99.90
6654;DHT22;3363;50.942;7.034;2022-09-09T16:09:05;19.20;99.90
6654;DHT22;3363;50.942;7.034;2022-09-09T16:11:33;19.20;99.90
6654;DHT22;3363;50.942;7.034;2022-09-09T16:14:00;19.20;99.90